sensor_id;sensor_type;location;lat;lon;timestamp;pressure;altitude;pressure_sealevel;temperature;humidity
68859;BME280;55864;49.238;8.092;2023-02-18T00:01:20;100335.72;;;10.61;94.92
68859;BME280;55864;49.238;8.092;2023-02-18T00:03:21;100327.34;;;10.67;95.07
68859;BME280;55864;49.238;8.092;2023-02-18T00:05:22;100327.34;;;10.67;94.95
68859;BME280;55864;49.238;8.092;2023-02-18T00:07:22;100321.97;;;10.69;95.06
68859;BME280;55864;49.238;8.092;2023-02-18T00:09:23;100330.56;;;10.71;95.65
68859;BME280;55864;49.238;8.092;2023-02-18T00:11:23;100327.81;;;10.72;95.85
68859;BME280;55864;49.238;8.092;2023-02-18T00:13:25;100334.84;;;10.72;96.35
68859;BME280;55864;49.238;8.092;2023-02-18T00:15:26;100336.53;;;10.73;96.38
68859;BME280;55864;49.238;8.092;2023-02-18T00:17:27;100334.00;;;10.71;96.69
68859;BME280;55864;49.238;8.092;2023-02-18T00:19:28;100336.75;;;10.70;96.48
68859;BME280;55864;49.238;8.092;2023-02-18T00:21:29;100333.41;;;10.68;96.58
68859;BME280;55864;49.238;8.092;2023-02-18T00:23:30;100333.41;;;10.68;96.81
68859;BME280;55864;49.238;8.092;2023-02-18T00:25:31;100336.19;;;10.66;97.33
68859;BME280;55864;49.238;8.092;2023-02-18T00:27:31;100333.69;;;10.65;97.79
68859;BME280;55864;49.238;8.092;2023-02-18T00:29:34;100335.59;;;10.63;97.95
68859;BME280;55864;49.238;8.092;2023-02-18T00:31:35;100338.34;;;10.61;98.22
68859;BME280;55864;49.238;8.092;2023-02-18T00:33:36;100329.75;;;10.59;98.75
68859;BME280;55864;49.238;8.092;2023-02-18T00:35:37;100311.56;;;10.56;98.81
68859;BME280;55864;49.238;8.092;2023-02-18T00:37:37;100316.09;;;10.54;99.17
68859;BME280;55864;49.238;8.092;2023-02-18T00:39:38;100324.00;;;10.54;99.52
68859;BME280;55864;49.238;8.092;2023-02-18T00:41:39;100306.69;;;10.52;100.00
68859;BME280;55864;49.238;8.092;2023-02-18T00:43:40;100308.59;;;10.50;100.00
68859;BME280;55864;49.238;8.092;2023-02-18T00:45:43;100313.03;;;10.49;100.00
68859;BME280;55864;49.238;8.092;2023-02-18T00:47:43;100314.94;;;10.47;100.00
68859;BME280;55864;49.238;8.092;2023-02-18T00:49:44;100309.69;;;10.47;100.00
68859;BME280;55864;49.238;8.092;2023-02-18T00:51:45;100316.63;;;10.48;100.00
68859;BME280;55864;49.238;8.092;2023-02-18T00:53:45;100320.19;;;10.47;100.00
68859;BME280;55864;49.238;8.092;2023-02-18T00:55:46;100308.03;;;10.46;100.00
68859;BME280;55864;49.238;8.092;2023-02-18T00:57:46;100307.19;;;10.46;100.00
68859;BME280;55864;49.238;8.092;2023-02-18T00:59:47;100309.81;;;10.46;100.00
68859;BME280;55864;49.238;8.092;2023-02-18T01:01:49;100301.94;;;10.46;100.00
68859;BME280;55864;49.238;8.092;2023-02-18T01:03:50;100303.56;;;10.47;100.00
68859;BME280;55864;49.238;8.092;2023-02-18T01:05:51;100305.41;;;10.46;100.00
68859;BME280;55864;49.238;8.092;2023-02-18T01:07:51;100302.91;;;10.45;100.00
68859;BME280;55864;49.238;8.092;2023-02-18T01:09:52;100303.00;;;10.43;100.00
68859;BME280;55864;49.238;8.092;2023-02-18T01:11:52;100302.19;;;10.43;100.00
68859;BME280;55864;49.238;8.092;2023-02-18T01:13:53;100298.72;;;10.42;100.00
68859;BME280;55864;49.238;8.092;2023-02-18T01:15:54;100295.25;;;10.41;100.00
68859;BME280;55864;49.238;8.092;2023-02-18T01:17:56;100295.50;;;10.38;100.00
68859;BME280;55864;49.238;8.092;2023-02-18T01:19:56;100287.63;;;10.38;100.00
68859;BME280;55864;49.238;8.092;2023-02-18T01:21:57;100281.53;;;10.38;100.00
68859;BME280;55864;49.238;8.092;2023-02-18T01:23:57;100287.63;;;10.38;100.00
68859;BME280;55864;49.238;8.092;2023-02-18T01:25:58;100291.06;;;10.39;100.00
68859;BME280;55864;49.238;8.092;2023-02-18T01:27:58;100277.09;;;10.38;100.00
68859;BME280;55864;49.238;8.092;2023-02-18T01:29:59;100283.31;;;10.37;100.00
68859;BME280;55864;49.238;8.092;2023-02-18T01:31:59;100291.19;;;10.37;100.00
68859;BME280;55864;49.238;8.092;2023-02-18T01:34:01;100299.06;;;10.37;100.00
68859;BME280;55864;49.238;8.092;2023-02-18T01:36:04;100300.75;;;10.38;100.00
68859;BME280;55864;49.238;8.092;2023-02-18T01:38:04;100300.88;;;10.37;100.00
68859;BME280;55864;49.238;8.092;2023-02-18T01:40:08;100293.81;;;10.37;100.00
68859;BME280;55864;49.238;8.092;2023-02-18T01:42:18;100302.41;;;10.39;100.00
68859;BME280;55864;49.238;8.092;2023-02-18T01:44:21;100303.25;;;10.40;100.00
68859;BME280;55864;49.238;8.092;2023-02-18T01:46:21;100294.53;;;10.39;100.00
68859;BME280;55864;49.238;8.092;2023-02-18T01:48:24;100295.25;;;10.41;99.61
68859;BME280;55864;49.238;8.092;2023-02-18T01:50:41;100291.69;;;10.43;99.64
68859;BME280;55864;49.238;8.092;2023-02-18T01:52:42;100286.41;;;10.43;99.52
68859;BME280;55864;49.238;8.092;2023-02-18T01:54:46;100294.28;;;10.43;99.67
68859;BME280;55864;49.238;8.092;2023-02-18T01:56:49;100289.84;;;10.43;99.31
68859;BME280;55864;49.238;8.092;2023-02-18T01:58:53;100283.66;;;10.44;99.41
68859;BME280;55864;49.238;8.092;2023-02-18T02:00:54;100298.59;;;10.43;99.63
68859;BME280;55864;49.238;8.092;2023-02-18T02:02:55;100288.06;;;10.43;99.90
68859;BME280;55864;49.238;8.092;2023-02-18T02:04:56;100295.00;;;10.45;100.00
68859;BME280;55864;49.238;8.092;2023-02-18T02:06:58;100283.66;;;10.44;99.83
68859;BME280;55864;49.238;8.092;2023-02-18T02:09:00;100288.91;;;10.44;99.71
68859;BME280;55864;49.238;8.092;2023-02-18T02:11:20;100294.03;;;10.46;99.64
68859;BME280;55864;49.238;8.092;2023-02-18T02:13:28;100271.38;;;10.45;98.72
68859;BME280;55864;49.238;8.092;2023-02-18T02:15:36;100282.56;;;10.47;98.74
68859;BME280;55864;49.238;8.092;2023-02-18T02:17:56;100275.66;;;10.46;98.38
68859;BME280;55864;49.238;8.092;2023-02-18T02:20:41;100281.75;;;10.46;97.92
68859;BME280;55864;49.238;8.092;2023-02-18T02:23:12;100284.50;;;10.45;97.60
68859;BME280;55864;49.238;8.092;2023-02-18T02:25:38;100267.91;;;10.44;97.51
68859;BME280;55864;49.238;8.092;2023-02-18T02:28:04;100260.16;;;10.43;97.25
68859;BME280;55864;49.238;8.092;2023-02-18T02:33:14;100247.97;;;10.41;96.20
68859;BME280;55864;49.238;8.092;2023-02-18T02:35:22;100259.31;;;10.42;96.35
68859;BME280;55864;49.238;8.092;2023-02-18T02:37:31;100267.19;;;10.42;96.15
68859;BME280;55864;49.238;8.092;2023-02-18T02:39:39;100256.81;;;10.40;96.50
68859;BME280;55864;49.238;8.092;2023-02-18T02:41:47;100259.31;;;10.42;96.38
68859;BME280;55864;49.238;8.092;2023-02-18T02:43:58;100245.22;;;10.43;95.46
68859;BME280;55864;49.238;8.092;2023-02-18T02:46:05;100254.06;;;10.42;95.60
68859;BME280;55864;49.238;8.092;2023-02-18T02:48:14;100245.34;;;10.41;95.32
68859;BME280;55864;49.238;8.092;2023-02-18T02:50:25;100236.53;;;10.43;95.17
68859;BME280;55864;49.238;8.092;2023-02-18T02:52:30;100245.34;;;10.41;94.14
68859;BME280;55864;49.238;8.092;2023-02-18T02:54:31;100242.59;;;10.43;93.78
68859;BME280;55864;49.238;8.092;2023-02-18T02:56:32;100228.63;;;10.43;93.93
68859;BME280;55864;49.238;8.092;2023-02-18T02:58:32;100230.28;;;10.43;93.61
68859;BME280;55864;49.238;8.092;2023-02-18T03:00:40;100236.38;;;10.44;93.49
68859;BME280;55864;49.238;8.092;2023-02-18T03:03:06;100231.13;;;10.44;93.81
68859;BME280;55864;49.238;8.092;2023-02-18T03:05:23;100229.44;;;10.43;94.00
68859;BME280;55864;49.238;8.092;2023-02-18T03:07:55;100235.53;;;10.43;94.22
68859;BME280;55864;49.238;8.092;2023-02-18T03:10:14;100226.72;;;10.45;94.73
68859;BME280;55864;49.238;8.092;2023-02-18T03:12:22;100225.88;;;10.44;94.23
68859;BME280;55864;49.238;8.092;2023-02-18T03:14:35;100237.31;;;10.43;94.43
68859;BME280;55864;49.238;8.092;2023-02-18T03:16:47;100237.47;;;10.41;94.14
68859;BME280;55864;49.238;8.092;2023-02-18T03:18:54;100245.34;;;10.41;93.65
68859;BME280;55864;49.238;8.092;2023-02-18T03:21:03;100243.56;;;10.42;93.03
68859;BME280;55864;49.238;8.092;2023-02-18T03:23:08;100239.16;;;10.43;92.85
68859;BME280;55864;49.238;8.092;2023-02-18T03:25:11;100231.13;;;10.44;92.86
68859;BME280;55864;49.238;8.092;2023-02-18T03:27:16;100236.25;;;10.46;92.83
68859;BME280;55864;49.238;8.092;2023-02-18T03:29:20;100231.97;;;10.45;92.50
68859;BME280;55864;49.238;8.092;2023-02-18T03:31:26;100220.50;;;10.46;92.25
68859;BME280;55864;49.238;8.092;2023-02-18T03:33:31;100230.16;;;10.45;92.59
68859;BME280;55864;49.238;8.092;2023-02-18T03:35:34;100223.13;;;10.46;92.68
68859;BME280;55864;49.238;8.092;2023-02-18T03:37:41;100219.66;;;10.45;92.45
68859;BME280;55864;49.238;8.092;2023-02-18T03:39:45;100217.03;;;10.45;92.67
68859;BME280;55864;49.238;8.092;2023-02-18T03:41:48;100223.13;;;10.46;92.58
68859;BME280;55864;49.238;8.092;2023-02-18T03:43:49;100219.53;;;10.47;92.67
68859;BME280;55864;49.238;8.092;2023-02-18T03:45:50;100217.88;;;10.46;92.49
68859;BME280;55864;49.238;8.092;2023-02-18T03:47:51;100217.03;;;10.45;92.86
68859;BME280;55864;49.238;8.092;2023-02-18T03:49:51;100215.38;;;10.44;92.51
68859;BME280;55864;49.238;8.092;2023-02-18T03:51:52;100224.19;;;10.43;93.19
68859;BME280;55864;49.238;8.092;2023-02-18T03:53:54;100226.00;;;10.43;92.90
68859;BME280;55864;49.238;8.092;2023-02-18T03:55:54;100223.25;;;10.44;93.05
68859;BME280;55864;49.238;8.092;2023-02-18T03:57:55;100232.06;;;10.43;93.20
68859;BME280;55864;49.238;8.092;2023-02-18T03:59:55;100224.91;;;10.45;93.08
68859;BME280;55864;49.238;8.092;2023-02-18T04:01:56;100232.06;;;10.43;93.43
68859;BME280;55864;49.238;8.092;2023-02-18T04:03:57;100232.06;;;10.43;93.50
68859;BME280;55864;49.238;8.092;2023-02-18T04:05:57;100223.38;;;10.43;93.37
68859;BME280;55864;49.238;8.092;2023-02-18T04:07:58;100232.91;;;10.43;92.84
68859;BME280;55864;49.238;8.092;2023-02-18T04:10:00;100230.41;;;10.42;93.10
68859;BME280;55864;49.238;8.092;2023-02-18T04:12:00;100238.16;;;10.43;92.81
68859;BME280;55864;49.238;8.092;2023-02-18T04:14:01;100242.47;;;10.45;92.92
68859;BME280;55864;49.238;8.092;2023-02-18T04:16:01;100246.06;;;10.43;92.48
68859;BME280;55864;49.238;8.092;2023-02-18T04:18:02;100245.13;;;10.45;93.00
68859;BME280;55864;49.238;8.092;2023-02-18T04:20:04;100240.66;;;10.45;92.43
68859;BME280;55864;49.238;8.092;2023-02-18T04:22:05;100232.66;;;10.47;92.77
68859;BME280;55864;49.238;8.092;2023-02-18T04:24:05;100230.03;;;10.47;92.41
68859;BME280;55864;49.238;8.092;2023-02-18T04:26:07;100232.56;;;10.48;92.61
68859;BME280;55864;49.238;8.092;2023-02-18T04:28:09;100239.47;;;10.49;92.43
68859;BME280;55864;49.238;8.092;2023-02-18T04:30:10;100240.31;;;10.50;92.52
68859;BME280;55864;49.238;8.092;2023-02-18T04:32:11;100232.44;;;10.50;92.18
68859;BME280;55864;49.238;8.092;2023-02-18T04:34:11;100241.16;;;10.50;92.30
68859;BME280;55864;49.238;8.092;2023-02-18T04:36:12;100234.34;;;10.48;92.33
68859;BME280;55864;49.238;8.092;2023-02-18T04:38:12;100233.38;;;10.49;92.23
68859;BME280;55864;49.238;8.092;2023-02-18T04:40:13;100228.97;;;10.49;92.36
68859;BME280;55864;49.238;8.092;2023-02-18T04:42:17;100228.97;;;10.49;92.35
68859;BME280;55864;49.238;8.092;2023-02-18T04:44:17;100224.78;;;10.47;92.38
68859;BME280;55864;49.238;8.092;2023-02-18T04:46:18;100229.09;;;10.48;92.61
68859;BME280;55864;49.238;8.092;2023-02-18T04:48:18;100234.47;;;10.46;92.78
68859;BME280;55864;49.238;8.092;2023-02-18T04:50:19;100232.66;;;10.47;92.63
68859;BME280;55864;49.238;8.092;2023-02-18T04:52:20;100231.72;;;10.48;92.60
68859;BME280;55864;49.238;8.092;2023-02-18T04:54:21;100234.34;;;10.48;92.19
68859;BME280;55864;49.238;8.092;2023-02-18T04:56:21;100230.88;;;10.47;92.47
68859;BME280;55864;49.238;8.092;2023-02-18T04:58:23;100233.38;;;10.49;92.36
68859;BME280;55864;49.238;8.092;2023-02-18T05:00:24;100231.47;;;10.51;92.61
68859;BME280;55864;49.238;8.092;2023-02-18T05:02:24;100229.81;;;10.50;92.30
68859;BME280;55864;49.238;8.092;2023-02-18T05:04:25;100230.53;;;10.52;92.49
68859;BME280;55864;49.238;8.092;2023-02-18T05:06:25;100221.81;;;10.51;92.46
68859;BME280;55864;49.238;8.092;2023-02-18T05:08:26;100220.84;;;10.52;92.61
68859;BME280;55864;49.238;8.092;2023-02-18T05:10:26;100220.72;;;10.54;92.53
68859;BME280;55864;49.238;8.092;2023-02-18T05:12:27;100220.84;;;10.52;92.37
68859;BME280;55864;49.238;8.092;2023-02-18T05:14:29;100215.69;;;10.51;92.41
68859;BME280;55864;49.238;8.092;2023-02-18T05:16:29;100206.88;;;10.52;92.72
68859;BME280;55864;49.238;8.092;2023-02-18T05:18:30;100206.03;;;10.51;92.54
68859;BME280;55864;49.238;8.092;2023-02-18T05:20:31;100210.22;;;10.54;92.59
68859;BME280;55864;49.238;8.092;2023-02-18T05:22:31;100198.03;;;10.53;92.47
68859;BME280;55864;49.238;8.092;2023-02-18T05:24:32;100200.66;;;10.53;92.46
68859;BME280;55864;49.238;8.092;2023-02-18T05:26:32;100202.47;;;10.52;92.41
68859;BME280;55864;49.238;8.092;2023-02-18T05:28:33;100205.09;;;10.52;92.30
68859;BME280;55864;49.238;8.092;2023-02-18T05:30:35;100217.25;;;10.53;91.95
68859;BME280;55864;49.238;8.092;2023-02-18T05:32:35;100198.03;;;10.53;92.06
68859;BME280;55864;49.238;8.092;2023-02-18T05:34:36;100202.47;;;10.52;92.09
68859;BME280;55864;49.238;8.092;2023-02-18T05:36:36;100205.91;;;10.53;92.09
68859;BME280;55864;49.238;8.092;2023-02-18T05:38:37;100200.78;;;10.51;91.88
68859;BME280;55864;49.238;8.092;2023-02-18T05:40:37;100199.84;;;10.52;91.91
68859;BME280;55864;49.238;8.092;2023-02-18T05:42:38;100196.38;;;10.52;91.89
68859;BME280;55864;49.238;8.092;2023-02-18T05:44:39;100198.88;;;10.53;91.76
68859;BME280;55864;49.238;8.092;2023-02-18T05:46:41;100191.84;;;10.54;92.03
68859;BME280;55864;49.238;8.092;2023-02-18T05:48:41;100198.88;;;10.53;91.77
68859;BME280;55864;49.238;8.092;2023-02-18T05:50:42;100212.97;;;10.52;91.86
68859;BME280;55864;49.238;8.092;2023-02-18T05:52:42;100205.91;;;10.53;91.95
68859;BME280;55864;49.238;8.092;2023-02-18T05:54:43;100204.13;;;10.53;91.88
68859;BME280;55864;49.238;8.092;2023-02-18T05:56:43;100197.09;;;10.54;91.75
68859;BME280;55864;49.238;8.092;2023-02-18T05:58:44;100193.50;;;10.55;91.64
68859;BME280;55864;49.238;8.092;2023-02-18T06:00:45;100197.81;;;10.56;91.43
68859;BME280;55864;49.238;8.092;2023-02-18T06:02:47;100195.19;;;10.56;91.41
68859;BME280;55864;49.238;8.092;2023-02-18T06:04:47;100196.81;;;10.57;91.67
68859;BME280;55864;49.238;8.092;2023-02-18T06:06:48;100202.22;;;10.55;91.44
68859;BME280;55864;49.238;8.092;2023-02-18T06:08:48;100197.22;;;10.52;91.12
68859;BME280;55864;49.238;8.092;2023-02-18T06:10:49;100193.03;;;10.50;91.43
68859;BME280;55864;49.238;8.092;2023-02-18T06:12:49;100192.19;;;10.49;91.58
68859;BME280;55864;49.238;8.092;2023-02-18T06:14:50;100207.25;;;10.47;91.29
68859;BME280;55864;49.238;8.092;2023-02-18T06:16:50;100207.38;;;10.46;91.92
68859;BME280;55864;49.238;8.092;2023-02-18T06:18:52;100206.66;;;10.43;91.06
68859;BME280;55864;49.238;8.092;2023-02-18T06:20:53;100205.09;;;10.41;90.66
68859;BME280;55864;49.238;8.092;2023-02-18T06:22:54;100206.06;;;10.40;91.18
68859;BME280;55864;49.238;8.092;2023-02-18T06:24:54;100208.81;;;10.38;91.88
68859;BME280;55864;49.238;8.092;2023-02-18T06:26:55;100199.25;;;10.37;92.05
68859;BME280;55864;49.238;8.092;2023-02-18T06:28:56;100203.56;;;10.38;91.93
68859;BME280;55864;49.238;8.092;2023-02-18T06:30:56;100202.59;;;10.39;91.75
68859;BME280;55864;49.238;8.092;2023-02-18T06:32:57;100193.06;;;10.38;91.75
68859;BME280;55864;49.238;8.092;2023-02-18T06:34:59;100194.00;;;10.37;91.27
68859;BME280;55864;49.238;8.092;2023-02-18T06:36:59;100192.34;;;10.36;91.81
68859;BME280;55864;49.238;8.092;2023-02-18T06:39:01;100181.00;;;10.36;92.05
68859;BME280;55864;49.238;8.092;2023-02-18T06:41:03;100179.09;;;10.38;91.73
68859;BME280;55864;49.238;8.092;2023-02-18T06:43:04;100172.06;;;10.38;92.09
68859;BME280;55864;49.238;8.092;2023-02-18T06:45:05;100178.03;;;10.40;91.79
68859;BME280;55864;49.238;8.092;2023-02-18T06:47:06;100166.53;;;10.41;91.96
68859;BME280;55864;49.238;8.092;2023-02-18T06:49:06;100159.50;;;10.42;91.73
68859;BME280;55864;49.238;8.092;2023-02-18T06:51:08;100158.66;;;10.41;92.08
68859;BME280;55864;49.238;8.092;2023-02-18T06:53:09;100159.38;;;10.43;92.18
68859;BME280;55864;49.238;8.092;2023-02-18T06:55:10;100153.19;;;10.45;92.04
68859;BME280;55864;49.238;8.092;2023-02-18T06:57:10;100152.94;;;10.48;91.63
68859;BME280;55864;49.238;8.092;2023-02-18T06:59:11;100153.75;;;10.48;91.87
68859;BME280;55864;49.238;8.092;2023-02-18T07:01:12;100155.41;;;10.49;91.79
68859;BME280;55864;49.238;8.092;2023-02-18T07:03:12;100146.59;;;10.50;91.84
68859;BME280;55864;49.238;8.092;2023-02-18T07:05:13;100147.41;;;10.51;91.59
68859;BME280;55864;49.238;8.092;2023-02-18T07:07:15;100143.00;;;10.51;91.49
68859;BME280;55864;49.238;8.092;2023-02-18T07:09:16;100150.75;;;10.53;91.93
68859;BME280;55864;49.238;8.092;2023-02-18T07:11:16;100144.78;;;10.51;91.76
68859;BME280;55864;49.238;8.092;2023-02-18T07:13:17;100141.94;;;10.54;91.68
68859;BME280;55864;49.238;8.092;2023-02-18T07:15:18;100150.50;;;10.56;91.31
68859;BME280;55864;49.238;8.092;2023-02-18T07:17:18;100143.09;;;10.61;91.32
68859;BME280;55864;49.238;8.092;2023-02-18T07:19:19;100136.03;;;10.61;91.24
68859;BME280;55864;49.238;8.092;2023-02-18T07:21:20;100132.56;;;10.61;91.00
68859;BME280;55864;49.238;8.092;2023-02-18T07:23:22;100135.47;;;10.58;90.94
68859;BME280;55864;49.238;8.092;2023-02-18T07:25:22;100140.31;;;10.62;90.72
68859;BME280;55864;49.238;8.092;2023-02-18T07:27:23;100131.50;;;10.63;90.77
68859;BME280;55864;49.238;8.092;2023-02-18T07:29:24;100130.66;;;10.63;90.99
68859;BME280;55864;49.238;8.092;2023-02-18T07:31:24;100113.91;;;10.64;90.79
68859;BME280;55864;49.238;8.092;2023-02-18T07:33:25;100115.59;;;10.65;90.98
68859;BME280;55864;49.238;8.092;2023-02-18T07:35:26;100119.06;;;10.65;91.11
68859;BME280;55864;49.238;8.092;2023-02-18T07:37:26;100109.38;;;10.66;91.31
68859;BME280;55864;49.238;8.092;2023-02-18T07:39:28;100126.94;;;10.65;90.76
68859;BME280;55864;49.238;8.092;2023-02-18T07:41:29;100118.94;;;10.67;90.38
68859;BME280;55864;49.238;8.092;2023-02-18T07:43:29;100114.41;;;10.69;90.49
68859;BME280;55864;49.238;8.092;2023-02-18T07:45:30;100122.41;;;10.67;90.33
68859;BME280;55864;49.238;8.092;2023-02-18T07:47:30;100117.97;;;10.68;90.24
68859;BME280;55864;49.238;8.092;2023-02-18T07:49:34;100118.53;;;10.71;89.67
68859;BME280;55864;49.238;8.092;2023-02-18T07:51:35;100115.09;;;10.71;89.73
68859;BME280;55864;49.238;8.092;2023-02-18T07:53:36;100123.69;;;10.73;89.45
68859;BME280;55864;49.238;8.092;2023-02-18T07:55:38;100121.06;;;10.73;89.70
68859;BME280;55864;49.238;8.092;2023-02-18T07:57:39;100127.03;;;10.75;89.65
68859;BME280;55864;49.238;8.092;2023-02-18T07:59:39;100125.22;;;10.75;89.65
68859;BME280;55864;49.238;8.092;2023-02-18T08:01:40;100125.34;;;10.74;89.69
68859;BME280;55864;49.238;8.092;2023-02-18T08:03:41;100118.16;;;10.76;89.07
68859;BME280;55864;49.238;8.092;2023-02-18T08:05:42;100128.41;;;10.79;88.74
68859;BME280;55864;49.238;8.092;2023-02-18T08:07:42;100127.47;;;10.80;88.42
68859;BME280;55864;49.238;8.092;2023-02-18T08:09:43;100128.41;;;10.79;88.47
68859;BME280;55864;49.238;8.092;2023-02-18T08:11:45;100126.63;;;10.79;88.49
68859;BME280;55864;49.238;8.092;2023-02-18T08:13:46;100129.97;;;10.81;88.35
68859;BME280;55864;49.238;8.092;2023-02-18T08:15:46;100131.66;;;10.82;88.38
68859;BME280;55864;49.238;8.092;2023-02-18T08:17:47;100125.41;;;10.83;88.32
68859;BME280;55864;49.238;8.092;2023-02-18T08:19:48;100118.94;;;10.87;87.86
68859;BME280;55864;49.238;8.092;2023-02-18T08:21:48;100124.06;;;10.89;87.91
68859;BME280;55864;49.238;8.092;2023-02-18T08:23:49;100131.13;;;10.88;88.18
68859;BME280;55864;49.238;8.092;2023-02-18T08:25:50;100118.69;;;10.90;87.65
68859;BME280;55864;49.238;8.092;2023-02-18T08:27:53;100123.13;;;10.90;87.91
68859;BME280;55864;49.238;8.092;2023-02-18T08:29:53;100127.53;;;10.89;88.17
68859;BME280;55864;49.238;8.092;2023-02-18T08:31:54;100121.44;;;10.89;87.85
68859;BME280;55864;49.238;8.092;2023-02-18T08:33:56;100110.94;;;10.89;87.83
68859;BME280;55864;49.238;8.092;2023-02-18T08:35:57;100109.16;;;10.89;87.87
68859;BME280;55864;49.238;8.092;2023-02-18T08:37:58;100109.84;;;10.91;87.77
68859;BME280;55864;49.238;8.092;2023-02-18T08:40:00;100101.97;;;10.91;87.61
68859;BME280;55864;49.238;8.092;2023-02-18T08:42:01;100107.94;;;10.93;87.34
68859;BME280;55864;49.238;8.092;2023-02-18T08:44:04;100105.16;;;10.95;86.88
68859;BME280;55864;49.238;8.092;2023-02-18T08:46:05;100100.75;;;10.95;86.94
68859;BME280;55864;49.238;8.092;2023-02-18T08:48:06;100103.38;;;10.95;86.52
68859;BME280;55864;49.238;8.092;2023-02-18T08:50:08;100098.94;;;10.96;86.74
68859;BME280;55864;49.238;8.092;2023-02-18T08:52:08;100109.34;;;10.97;86.81
68859;BME280;55864;49.238;8.092;2023-02-18T08:54:09;100115.31;;;10.99;85.97
68859;BME280;55864;49.238;8.092;2023-02-18T08:56:10;100117.09;;;10.99;86.06
68859;BME280;55864;49.238;8.092;2023-02-18T08:58:10;100116.81;;;11.02;85.93
68859;BME280;55864;49.238;8.092;2023-02-18T09:00:14;100111.31;;;11.05;85.49
68859;BME280;55864;49.238;8.092;2023-02-18T09:02:15;100114.53;;;11.08;85.11
68859;BME280;55864;49.238;8.092;2023-02-18T09:04:16;100102.22;;;11.09;85.13
68859;BME280;55864;49.238;8.092;2023-02-18T09:06:17;100097.78;;;11.09;85.29
68859;BME280;55864;49.238;8.092;2023-02-18T09:08:17;100098.25;;;11.14;84.19
68859;BME280;55864;49.238;8.092;2023-02-18T09:10:18;100098.09;;;11.16;84.33
68859;BME280;55864;49.238;8.092;2023-02-18T09:12:18;100096.31;;;11.16;84.61
68859;BME280;55864;49.238;8.092;2023-02-18T09:14:19;100095.63;;;11.14;84.79
68859;BME280;55864;49.238;8.092;2023-02-18T09:16:21;100106.69;;;11.18;84.23
68859;BME280;55864;49.238;8.092;2023-02-18T09:18:21;100088.28;;;11.18;84.13
68859;BME280;55864;49.238;8.092;2023-02-18T09:20:22;100088.28;;;11.18;84.06
68859;BME280;55864;49.238;8.092;2023-02-18T09:22:22;100095.19;;;11.19;84.00
68859;BME280;55864;49.238;8.092;2023-02-18T09:24:23;100094.50;;;11.17;84.14
68859;BME280;55864;49.238;8.092;2023-02-18T09:26:24;100087.16;;;11.20;83.64
68859;BME280;55864;49.238;8.092;2023-02-18T09:28:25;100105.59;;;11.20;83.17
68859;BME280;55864;49.238;8.092;2023-02-18T09:30:26;100087.63;;;11.25;83.62
68859;BME280;55864;49.238;8.092;2023-02-18T09:32:28;100089.84;;;11.30;82.74
68859;BME280;55864;49.238;8.092;2023-02-18T09:34:29;100081.25;;;11.28;83.25
68859;BME280;55864;49.238;8.092;2023-02-18T09:36:29;100087.22;;;11.30;83.42
68859;BME280;55864;49.238;8.092;2023-02-18T09:38:30;100100.97;;;11.33;83.09
68859;BME280;55864;49.238;8.092;2023-02-18T09:40:32;100087.69;;;11.35;82.21
68859;BME280;55864;49.238;8.092;2023-02-18T09:42:34;100095.56;;;11.35;82.39
68859;BME280;55864;49.238;8.092;2023-02-18T09:44:38;100098.06;;;11.36;82.38
68859;BME280;55864;49.238;8.092;2023-02-18T09:46:46;100108.31;;;11.39;82.64
68859;BME280;55864;49.238;8.092;2023-02-18T09:48:50;100110.13;;;11.39;82.89
68859;BME280;55864;49.238;8.092;2023-02-18T09:50:52;100110.00;;;11.41;81.53
68859;BME280;55864;49.238;8.092;2023-02-18T09:52:53;100107.94;;;11.44;80.52
68859;BME280;55864;49.238;8.092;2023-02-18T09:54:54;100106.00;;;11.46;80.12
68859;BME280;55864;49.238;8.092;2023-02-18T09:56:55;100106.84;;;11.47;79.59
68859;BME280;55864;49.238;8.092;2023-02-18T09:58:57;100103.50;;;11.45;80.04
68859;BME280;55864;49.238;8.092;2023-02-18T10:01:04;100114.03;;;11.45;79.84
68859;BME280;55864;49.238;8.092;2023-02-18T10:03:07;100109.59;;;11.45;80.40
68859;BME280;55864;49.238;8.092;2023-02-18T10:05:12;100102.81;;;11.43;78.89
68859;BME280;55864;49.238;8.092;2023-02-18T10:07:20;100092.72;;;11.48;78.34
68859;BME280;55864;49.238;8.092;2023-02-18T10:09:24;100102.16;;;11.50;78.50
68859;BME280;55864;49.238;8.092;2023-02-18T10:11:29;100106.75;;;11.58;78.18
68859;BME280;55864;49.238;8.092;2023-02-18T10:13:32;100098.50;;;11.72;76.67
68859;BME280;55864;49.238;8.092;2023-02-18T10:15:34;100087.47;;;11.87;75.20
68859;BME280;55864;49.238;8.092;2023-02-18T10:17:36;100081.69;;;11.93;75.09
68859;BME280;55864;49.238;8.092;2023-02-18T10:19:38;100078.50;;;11.99;75.41
68859;BME280;55864;49.238;8.092;2023-02-18T10:21:41;100097.91;;;12.08;74.24
68859;BME280;55864;49.238;8.092;2023-02-18T10:23:55;100084.34;;;12.12;74.30
68859;BME280;55864;49.238;8.092;2023-02-18T10:25:58;100081.88;;;12.20;74.49
68859;BME280;55864;49.238;8.092;2023-02-18T10:28:00;100090.72;;;12.19;73.95
68859;BME280;55864;49.238;8.092;2023-02-18T10:30:16;100094.75;;;12.23;74.29
68859;BME280;55864;49.238;8.092;2023-02-18T10:32:21;100099.31;;;12.21;75.12
68859;BME280;55864;49.238;8.092;2023-02-18T10:34:30;100084.22;;;12.23;75.03
68859;BME280;55864;49.238;8.092;2023-02-18T10:36:41;100090.19;;;12.25;74.64
68859;BME280;55864;49.238;8.092;2023-02-18T10:38:55;100094.59;;;12.25;74.43
68859;BME280;55864;49.238;8.092;2023-02-18T10:41:05;100093.22;;;12.30;73.90
68859;BME280;55864;49.238;8.092;2023-02-18T10:43:16;100097.09;;;12.26;74.36